Time;durP1;ratioP1;P1;durP2;ratioP2;P2;SDS_P1;SDS_P2;PMS_P1;PMS_P2;Temp;Humidity;BMP_temperature;BMP_pressure;BME280_temperature;BME280_humidity;BME280_pressure;Samples;Min_cycle;Max_cycle;Signal;HPM_P1;HPM_P2
2022/06/16 00:01:45;;;;;;;10.55;3.72;;;20.20;99.90;;;;;;5087512;28;20022;-70
2022/06/16 00:04:11;;;;;;;13.30;4.25;;;20.20;99.90;;;;;;5087866;28;20373;-69
2022/06/16 00:06:36;;;;;;;9.90;4.40;;;20.10;99.90;;;;;;5095808;28;20116;-69
2022/06/16 00:09:04;;;;;;;8.38;4.40;;;20.10;99.90;;;;;;5095010;28;20028;-69
2022/06/16 00:11:30;;;;;;;10.18;4.03;;;20.20;99.90;;;;;;5095878;28;20076;-71
2022/06/16 00:13:55;;;;;;;9.85;4.50;;;20.20;99.90;;;;;;5095537;28;20043;-70
2022/06/16 00:16:22;;;;;;;11.18;4.00;;;20.40;99.90;;;;;;5095477;28;20038;-70
2022/06/16 00:18:48;;;;;;;12.52;5.10;;;20.50;99.90;;;;;;5094871;28;20024;-71
2022/06/16 00:21:15;;;;;;;10.43;4.78;;;20.40;99.90;;;;;;5093891;28;20016;-69
2022/06/16 00:23:41;;;;;;;10.52;4.68;;;20.50;99.90;;;;;;5094846;28;20465;-70
2022/06/16 00:26:18;;;;;;;14.07;4.53;;;20.40;99.90;;;;;;5094910;28;20448;-69
2022/06/16 00:28:46;;;;;;;12.68;4.78;;;20.20;99.90;;;;;;5094893;28;20047;-71
2022/06/16 00:31:13;;;;;;;14.27;4.07;;;20.10;99.90;;;;;;5095165;28;20058;-70
2022/06/16 00:33:39;;;;;;;6.97;4.18;;;20.20;99.90;;;;;;5094334;28;20028;-71
2022/06/16 00:36:06;;;;;;;9.30;3.95;;;20.30;99.90;;;;;;5090863;28;20028;-70
2022/06/16 00:38:32;;;;;;;11.95;4.47;;;20.10;99.90;;;;;;5093585;28;20141;-69
2022/06/16 00:40:59;;;;;;;9.80;4.30;;;20.10;99.90;;;;;;5094668;28;20140;-70
2022/06/16 00:43:26;;;;;;;13.43;4.00;;;20.10;99.90;;;;;;5094155;28;20039;-70
2022/06/16 00:46:01;;;;;;;10.05;4.53;;;20.10;99.90;;;;;;5093379;28;20020;-70
2022/06/16 00:48:36;;;;;;;8.48;3.88;;;20.20;99.90;;;;;;5070806;28;20038;-69
2022/06/16 00:51:01;;;;;;;13.30;4.35;;;20.00;99.90;;;;;;5085961;28;20028;-70
2022/06/16 00:53:28;;;;;;;10.93;4.28;;;20.00;99.90;;;;;;5094067;28;20019;-70
2022/06/16 00:55:54;;;;;;;9.77;4.18;;;19.90;99.90;;;;;;5093196;28;20024;-69
2022/06/16 00:58:22;;;;;;;11.88;4.05;;;19.80;99.90;;;;;;5094373;28;20051;-71
2022/06/16 01:00:51;;;;;;;10.65;4.40;;;19.80;99.90;;;;;;5079941;28;20060;-70
2022/06/16 01:04:51;;;;;;;8.43;4.25;;;19.60;99.90;;;;;;5091475;28;20034;-69
2022/06/16 01:06:22;;;;;;;6.25;3.83;;;19.30;99.90;;;;;;5092174;28;20036;-70
2022/06/16 01:08:53;;;;;;;9.57;4.13;;;19.40;99.90;;;;;;5094059;28;20030;-70
2022/06/16 01:14:43;;;;;;;14.30;5.07;;;19.60;99.90;;;;;;5082964;28;20036;-69
2022/06/16 01:17:36;;;;;;;10.52;4.50;;;19.50;99.90;;;;;;5093468;28;20039;-71
2022/06/16 01:20:16;;;;;;;18.40;4.82;;;19.50;99.90;;;;;;5092679;28;20442;-69
2022/06/16 01:23:01;;;;;;;13.93;5.00;;;19.30;99.90;;;;;;5093781;28;20118;-71
2022/06/16 01:25:36;;;;;;;10.65;3.85;;;19.30;99.90;;;;;;5093987;28;20049;-68
2022/06/16 01:28:42;;;;;;;10.63;4.30;;;19.20;99.90;;;;;;5092341;28;20032;-69
2022/06/16 01:31:32;;;;;;;13.35;5.10;;;19.00;99.90;;;;;;5093370;28;20021;-69
2022/06/16 01:34:11;;;;;;;10.93;5.40;;;19.10;99.90;;;;;;5092394;28;20032;-70
2022/06/16 01:36:51;;;;;;;7.95;4.60;;;19.00;99.90;;;;;;5092443;28;20036;-69
2022/06/16 01:39:32;;;;;;;9.20;4.90;;;19.00;99.90;;;;;;5092436;28;20021;-69
2022/06/16 01:42:11;;;;;;;10.80;4.43;;;18.70;99.90;;;;;;5092232;28;20038;-69
2022/06/16 01:44:43;;;;;;;8.02;4.47;;;18.70;99.90;;;;;;5093556;28;20422;-69
2022/06/16 01:47:17;;;;;;;13.38;5.22;;;18.80;99.90;;;;;;5089513;28;20373;-70
2022/06/16 01:49:48;;;;;;;8.27;4.10;;;18.80;99.90;;;;;;5093169;28;20073;-69
2022/06/16 01:52:24;;;;;;;12.88;4.95;;;18.70;99.90;;;;;;5093609;28;20074;-71
2022/06/16 01:54:58;;;;;;;11.43;4.50;;;18.70;99.90;;;;;;5091687;28;20067;-71
2022/06/16 01:57:37;;;;;;;8.20;4.85;;;18.70;99.90;;;;;;5092140;28;20035;-69
2022/06/16 02:00:22;;;;;;;8.32;4.80;;;18.70;99.90;;;;;;5079441;28;20481;-70
2022/06/16 02:03:11;;;;;;;9.18;4.70;;;18.50;99.90;;;;;;5065872;28;20506;-69
2022/06/16 02:05:58;;;;;;;6.68;4.53;;;18.70;99.90;;;;;;5086159;28;20384;-69
2022/06/16 02:08:47;;;;;;;11.10;5.35;;;18.50;99.90;;;;;;5094466;28;20032;-69
2022/06/16 02:11:16;;;;;;;8.05;4.60;;;18.50;99.90;;;;;;5091607;28;20028;-69
2022/06/16 02:13:50;;;;;;;9.77;4.18;;;18.40;99.90;;;;;;5091521;28;20115;-69
2022/06/16 02:16:22;;;;;;;9.30;5.00;;;18.40;99.90;;;;;;5091501;28;20028;-69
2022/06/16 02:18:51;;;;;;;;;;;18.40;99.90;;;;;;5092116;28;20024;-70
2022/06/16 02:21:20;;;;;;;10.65;4.38;;;18.50;99.90;;;;;;5083135;28;19908;-69
2022/06/16 02:23:46;;;;;;;10.77;4.78;;;18.50;99.90;;;;;;5091520;28;20385;-70
2022/06/16 02:26:12;;;;;;;9.35;4.25;;;18.40;99.90;;;;;;5092761;28;20084;-70
2022/06/16 02:28:49;;;;;;;7.15;4.60;;;18.40;99.90;;;;;;5088250;28;20032;-69
2022/06/16 02:31:25;;;;;;;12.02;4.13;;;18.10;99.90;;;;;;5082075;28;20031;-70
2022/06/16 02:34:21;;;;;;;11.10;4.78;;;18.20;99.90;;;;;;5091542;28;20028;-70
2022/06/16 02:37:23;;;;;;;7.85;4.65;;;18.10;99.90;;;;;;5094058;28;20047;-69
2022/06/16 02:39:58;;;;;;;9.35;3.95;;;18.20;99.90;;;;;;5091589;28;20036;-70
2022/06/16 02:42:43;;;;;;;13.73;4.95;;;18.10;99.90;;;;;;5091278;28;20027;-70
2022/06/16 02:45:26;;;;;;;13.90;4.38;;;18.10;99.90;;;;;;5091334;28;20067;-70
2022/06/16 02:48:01;;;;;;;7.97;4.47;;;18.20;99.90;;;;;;5075161;28;20031;-70
2022/06/16 02:50:33;;;;;;;8.20;4.50;;;18.20;99.90;;;;;;5091614;28;20399;-70
2022/06/16 02:53:28;;;;;;;9.25;4.88;;;18.10;99.90;;;;;;5066007;28;20119;-69
2022/06/16 02:56:01;;;;;;;8.18;4.07;;;18.10;99.90;;;;;;5077006;28;20505;-70
2022/06/16 02:58:27;;;;;;;;;;;17.90;99.90;;;;;;5092922;28;20107;-70
2022/06/16 03:00:54;;;;;;;12.40;5.00;;;18.00;99.90;;;;;;5091430;28;19908;-71
2022/06/16 03:03:25;;;;;;;10.77;4.68;;;17.70;99.90;;;;;;5088171;28;20103;-70
2022/06/16 03:06:05;;;;;;;13.93;4.82;;;17.60;99.90;;;;;;5087264;28;20421;-70
2022/06/16 03:08:36;;;;;;;8.68;4.53;;;17.60;99.90;;;;;;5091100;28;20028;-69
2022/06/16 03:11:02;;;;;;;10.53;5.10;;;17.60;99.90;;;;;;5092502;28;20570;-69
2022/06/16 03:13:32;;;;;;;10.57;5.03;;;17.70;99.90;;;;;;5092069;28;20032;-70
2022/06/16 03:16:00;;;;;;;14.30;4.78;;;17.40;99.90;;;;;;5091378;28;20028;-71
2022/06/16 03:18:29;;;;;;;14.02;4.95;;;17.40;99.90;;;;;;5091251;28;20028;-69
2022/06/16 03:20:56;;;;;;;10.55;5.63;;;17.80;99.90;;;;;;5092535;28;20039;-70
2022/06/16 03:23:21;;;;;;;9.15;4.88;;;17.90;99.90;;;;;;5090779;28;20110;-69
2022/06/16 03:25:49;;;;;;;6.03;4.15;;;17.70;99.90;;;;;;5091228;28;20071;-69
2022/06/16 03:28:16;;;;;;;8.02;4.72;;;17.50;99.90;;;;;;5088932;28;20048;-71
2022/06/16 03:30:43;;;;;;;14.32;5.03;;;17.60;99.90;;;;;;5080083;28;20387;-70
2022/06/16 03:33:12;;;;;;;9.43;4.95;;;17.50;99.90;;;;;;5090762;28;20020;-70
2022/06/16 03:35:40;;;;;;;13.05;5.78;;;17.50;99.90;;;;;;5091191;28;20034;-71
2022/06/16 03:40:51;;;;;;;15.57;5.03;;;17.80;99.90;;;;;;5094174;28;20059;-71
2022/06/16 03:43:17;;;;;;;11.38;4.75;;;18.10;99.90;;;;;;5094065;28;20469;-69
2022/06/16 03:45:44;;;;;;;9.82;4.65;;;18.10;99.90;;;;;;5094557;28;20468;-71
2022/06/16 03:48:10;;;;;;;11.45;4.97;;;18.20;99.90;;;;;;5087180;28;20074;-70
2022/06/16 03:50:41;;;;;;;14.75;5.80;;;18.00;99.90;;;;;;5094528;28;20071;-70
2022/06/16 03:53:07;;;;;;;11.20;4.80;;;17.80;99.90;;;;;;5094024;28;20026;-70
2022/06/16 03:55:38;;;;;;;18.65;5.38;;;17.60;99.90;;;;;;5094141;28;20032;-69
2022/06/16 03:58:04;;;;;;;12.25;4.88;;;17.50;99.90;;;;;;5095380;28;20028;-69
2022/06/16 04:00:32;;;;;;;10.27;4.88;;;17.70;99.90;;;;;;5094361;28;20089;-70
2022/06/16 04:06:03;;;;;;;9.25;4.57;;;17.80;99.90;;;;;;5059387;28;20039;-69
2022/06/16 04:08:29;;;;;;;9.27;4.63;;;17.70;99.90;;;;;;5095271;28;20032;-70
2022/06/16 04:10:56;;;;;;;13.73;5.53;;;17.50;99.90;;;;;;5093821;28;20024;-69
2022/06/16 04:13:22;;;;;;;11.27;4.82;;;17.50;99.90;;;;;;5093388;28;20043;-70
2022/06/16 04:15:50;;;;;;;13.98;4.45;;;17.40;99.90;;;;;;5093930;28;20035;-70
2022/06/16 04:18:19;;;;;;;7.47;4.70;;;17.30;99.90;;;;;;5076799;28;20491;-71
2022/06/16 04:20:47;;;;;;;11.13;4.72;;;17.40;99.90;;;;;;5094010;28;20024;-71
2022/06/16 04:23:29;;;;;;;9.65;4.60;;;17.60;99.90;;;;;;5093619;28;20058;-70
2022/06/16 04:25:54;;;;;;;12.68;5.45;;;17.30;99.90;;;;;;5076641;28;20036;-70
2022/06/16 04:28:24;;;;;;;11.57;4.70;;;17.40;99.90;;;;;;5090733;28;20507;-69
2022/06/16 04:30:54;;;;;;;14.05;5.30;;;17.70;99.90;;;;;;5083067;28;20388;-70
2022/06/16 04:33:25;;;;;;;18.35;5.35;;;17.70;99.90;;;;;;5093359;28;20109;-70
2022/06/16 04:35:54;;;;;;;9.73;5.10;;;17.70;99.90;;;;;;5093606;28;20028;-69
2022/06/16 04:38:23;;;;;;;16.77;5.45;;;17.90;99.90;;;;;;5093582;28;20020;-71
2022/06/16 04:40:50;;;;;;;16.80;5.70;;;18.10;99.90;;;;;;5094529;28;20492;-69
2022/06/16 04:43:17;;;;;;;12.68;6.00;;;18.10;99.90;;;;;;5093356;28;20032;-71
2022/06/16 04:45:50;;;;;;;16.20;6.35;;;18.30;99.90;;;;;;5093679;28;20027;-71
2022/06/16 04:48:19;;;;;;;12.60;5.85;;;18.50;99.90;;;;;;5085904;28;20027;-71
2022/06/16 04:50:45;;;;;;;22.23;5.88;;;18.50;99.90;;;;;;5092807;28;20065;-70
2022/06/16 04:53:14;;;;;;;12.15;5.70;;;18.60;99.90;;;;;;5093149;28;20111;-69
2022/06/16 04:56:00;;;;;;;12.02;6.30;;;18.70;99.90;;;;;;5093140;28;20036;-70
2022/06/16 04:58:46;;;;;;;13.30;5.93;;;19.00;99.90;;;;;;5092832;28;20028;-71
2022/06/16 05:01:31;;;;;;;14.00;6.20;;;18.90;99.90;;;;;;5092940;28;20050;-69
2022/06/16 05:04:06;;;;;;;14.70;5.85;;;18.90;99.90;;;;;;5087583;28;20043;-69
2022/06/16 05:07:05;;;;;;;17.65;6.35;;;18.90;99.90;;;;;;5085575;28;20048;-72
2022/06/16 05:09:53;;;;;;;17.90;6.40;;;18.90;99.90;;;;;;5070806;28;20032;-70
2022/06/16 05:12:42;;;;;;;10.88;6.15;;;19.00;99.90;;;;;;5087938;28;20035;-71
2022/06/16 05:15:31;;;;;;;18.15;5.95;;;19.00;99.90;;;;;;5064953;28;20044;-69
2022/06/16 05:18:32;;;;;;;15.45;5.95;;;18.80;99.90;;;;;;5030659;28;20033;-71
2022/06/16 05:21:31;;;;;;;16.80;5.78;;;18.90;99.90;;;;;;5084989;28;20035;-70
2022/06/16 05:23:56;;;;;;;11.52;4.90;;;19.00;99.90;;;;;;5093627;28;20034;-70
2022/06/16 05:26:40;;;;;;;13.88;5.00;;;19.10;99.90;;;;;;5094196;28;20084;-71
2022/06/16 05:29:25;;;;;;;11.15;4.80;;;19.30;99.90;;;;;;5082693;28;20047;-72
2022/06/16 05:32:07;;;;;;;11.52;4.88;;;19.50;99.90;;;;;;5056821;28;20469;-70
2022/06/16 05:34:45;;;;;;;10.52;5.20;;;19.30;99.90;;;;;;5063993;28;20043;-70
2022/06/16 05:37:18;;;;;;;7.55;4.82;;;19.30;99.90;;;;;;5067544;28;20033;-70
2022/06/16 05:40:13;;;;;;;13.40;4.55;;;19.50;99.90;;;;;;5067996;28;20044;-76
2022/06/16 05:43:01;;;;;;;10.20;4.30;;;19.60;99.90;;;;;;5062765;28;20458;-68
2022/06/16 05:46:05;;;;;;;14.05;5.28;;;19.60;99.90;;;;;;5028633;28;20033;-77
2022/06/16 05:48:34;;;;;;;17.05;5.20;;;19.50;99.90;;;;;;5060718;28;20041;-69
2022/06/16 05:51:10;;;;;;;15.50;5.75;;;19.70;99.90;;;;;;5070284;28;20097;-69
2022/06/16 05:54:14;;;;;;;14.32;5.57;;;19.70;99.90;;;;;;5062044;28;20048;-71
2022/06/16 05:56:43;;;;;;;12.30;5.40;;;19.40;99.90;;;;;;5070973;28;20101;-70
2022/06/16 05:59:11;;;;;;;10.35;5.32;;;19.50;99.90;;;;;;5070918;28;20028;-68
2022/06/16 06:01:41;;;;;;;11.33;5.03;;;19.60;99.90;;;;;;5070298;28;20469;-74
2022/06/16 06:04:09;;;;;;;10.65;5.55;;;19.60;99.90;;;;;;5070558;28;20024;-71
2022/06/16 06:06:36;;;;;;;21.17;5.35;;;19.90;99.90;;;;;;5059696;28;20546;-76
2022/06/16 06:17:20;;;;;;;10.90;5.68;;;19.70;99.90;;;;;;5064159;28;20183;-71
2022/06/16 06:19:49;;;;;;;15.97;6.03;;;19.80;99.90;;;;;;5066757;28;20009;-76
2022/06/16 06:22:19;;;;;;;20.05;6.28;;;19.50;99.90;;;;;;5079207;28;20024;-68
2022/06/16 06:24:50;;;;;;;14.68;5.22;;;19.70;99.90;;;;;;5070504;28;20031;-70
2022/06/16 06:27:21;;;;;;;10.30;4.88;;;19.80;99.90;;;;;;5070341;28;20099;-70
2022/06/16 06:29:48;;;;;;;19.88;5.72;;;19.90;99.90;;;;;;5070964;28;20087;-69
2022/06/16 06:32:17;;;;;;;14.00;5.15;;;19.90;99.90;;;;;;5076268;28;20111;-68
2022/06/16 06:34:43;;;;;;;15.25;4.82;;;20.00;99.90;;;;;;5077961;28;20025;-68
2022/06/16 06:37:12;;;;;;;17.75;5.45;;;20.10;99.90;;;;;;5072818;28;20511;-70
2022/06/16 06:39:38;;;;;;;11.18;5.30;;;20.00;99.60;;;;;;5082960;28;20460;-74
2022/06/16 06:42:04;;;;;;;13.98;5.55;;;20.00;99.80;;;;;;5086520;28;20027;-71
2022/06/16 06:44:33;;;;;;;20.88;5.18;;;20.10;99.70;;;;;;5077370;28;20032;-70
2022/06/16 06:47:00;;;;;;;14.38;5.30;;;20.50;99.30;;;;;;5075899;28;20484;-76
2022/06/16 06:49:27;;;;;;;13.35;5.57;;;20.50;98.30;;;;;;5084646;28;20031;-68
2022/06/16 06:51:53;;;;;;;18.75;5.88;;;20.50;98.70;;;;;;5076061;28;20086;-69
2022/06/16 06:54:20;;;;;;;16.90;6.03;;;20.70;99.30;;;;;;5070817;28;20090;-70
2022/06/16 06:56:47;;;;;;;15.95;6.80;;;20.80;99.50;;;;;;5066774;28;20186;-69
2022/06/16 06:59:16;;;;;;;17.55;6.95;;;20.20;99.60;;;;;;5075435;28;20086;-73
2022/06/16 07:01:42;;;;;;;17.48;6.90;;;19.90;99.90;;;;;;5084072;28;20024;-76
2022/06/16 07:04:08;;;;;;;13.35;6.82;;;20.10;99.90;;;;;;5072037;28;20043;-69
2022/06/16 07:06:34;;;;;;;10.88;5.90;;;20.30;99.80;;;;;;5071793;28;20021;-76
2022/06/16 07:09:00;;;;;;;10.98;5.78;;;20.30;99.40;;;;;;5071482;28;20047;-70
2022/06/16 07:11:26;;;;;;;14.70;5.90;;;20.20;99.90;;;;;;5071675;28;20028;-75
2022/06/16 07:13:52;;;;;;;16.17;6.97;;;20.60;99.90;;;;;;5072868;28;20040;-68
2022/06/16 07:16:19;;;;;;;14.60;6.68;;;20.80;99.70;;;;;;5075243;28;20047;-76
2022/06/16 07:18:45;;;;;;;19.25;6.03;;;21.00;99.50;;;;;;5072816;28;20024;-73
2022/06/16 07:21:11;;;;;;;20.05;6.65;;;21.30;99.40;;;;;;5075057;28;20483;-70
2022/06/16 07:23:37;;;;;;;10.90;6.30;;;21.60;99.00;;;;;;5075534;28;20032;-66
2022/06/16 07:26:04;;;;;;;17.02;6.72;;;21.60;98.50;;;;;;5075617;28;20153;-70
2022/06/16 07:28:30;;;;;;;16.95;6.00;;;21.50;98.10;;;;;;5075401;28;20028;-68
2022/06/16 07:30:56;;;;;;;13.23;6.32;;;21.60;98.40;;;;;;5084611;28;20027;-68
2022/06/16 07:33:23;;;;;;;16.42;5.53;;;21.60;98.50;;;;;;5095898;28;20024;-68
2022/06/16 07:35:50;;;;;;;18.08;6.38;;;21.40;98.40;;;;;;5095858;28;20024;-68
2022/06/16 07:38:16;;;;;;;15.18;6.80;;;21.30;98.40;;;;;;5096087;28;20145;-68
2022/06/16 07:40:42;;;;;;;12.98;6.47;;;21.50;98.90;;;;;;5056251;28;20029;-69
2022/06/16 07:43:08;;;;;;;31.33;7.07;;;21.60;98.30;;;;;;5080225;28;20055;-68
2022/06/16 07:45:35;;;;;;;14.57;7.43;;;21.10;99.30;;;;;;5095941;28;20468;-70
2022/06/16 07:48:02;;;;;;;17.52;7.18;;;20.70;99.40;;;;;;5088213;28;20488;-67
2022/06/16 07:50:30;;;;;;;18.92;8.40;;;20.30;99.90;;;;;;5095963;28;20043;-69
2022/06/16 07:52:56;;;;;;;15.38;7.50;;;20.20;99.90;;;;;;5095436;28;20070;-67
2022/06/16 07:55:22;;;;;;;12.32;7.03;;;20.50;99.90;;;;;;5095456;28;20067;-67
2022/06/16 07:57:50;;;;;;;17.55;8.43;;;20.80;99.90;;;;;;5095669;28;20488;-69
2022/06/16 08:00:23;;;;;;;15.27;7.00;;;20.90;99.90;;;;;;5095370;28;20031;-69
2022/06/16 08:02:49;;;;;;;16.30;7.18;;;21.40;99.60;;;;;;5067102;28;20016;-68
2022/06/16 08:05:15;;;;;;;20.80;7.13;;;21.80;98.00;;;;;;5088738;28;20035;-69
2022/06/16 08:07:42;;;;;;;16.83;6.43;;;21.90;98.30;;;;;;5095355;28;20020;-69
2022/06/16 08:10:14;;;;;;;17.17;6.53;;;22.00;97.60;;;;;;5095623;28;20061;-70
2022/06/16 08:12:40;;;;;;;21.52;7.80;;;22.20;97.50;;;;;;5095049;28;20081;-67
2022/06/16 08:15:07;;;;;;;12.73;7.78;;;22.50;96.90;;;;;;5095081;28;20051;-69
2022/06/16 08:17:36;;;;;;;17.40;7.22;;;22.20;96.50;;;;;;5093598;28;20523;-69
2022/06/16 08:20:02;;;;;;;9.75;6.40;;;22.30;97.00;;;;;;5095098;28;20192;-69
2022/06/16 08:22:29;;;;;;;13.48;6.20;;;22.30;96.80;;;;;;5095146;28;20020;-68
2022/06/16 08:24:55;;;;;;;9.90;4.28;;;22.60;96.00;;;;;;5094225;28;20856;-70
2022/06/16 08:27:26;;;;;;;14.88;6.35;;;23.10;95.70;;;;;;5095160;28;20031;-69
2022/06/16 08:29:53;;;;;;;12.80;5.57;;;23.10;94.60;;;;;;5080814;28;20028;-70
2022/06/16 08:32:20;;;;;;;20.42;5.75;;;23.30;95.30;;;;;;5094921;28;20361;-69
2022/06/16 08:34:46;;;;;;;16.42;6.00;;;23.50;94.30;;;;;;5094311;28;20491;-68
2022/06/16 08:37:13;;;;;;;12.40;5.28;;;23.50;94.50;;;;;;5094280;28;20430;-68
2022/06/16 08:39:38;;;;;;;12.15;4.50;;;24.00;94.00;;;;;;5094773;28;20024;-68
2022/06/16 08:42:46;;;;;;;14.68;5.05;;;23.90;92.60;;;;;;5094647;28;20353;-68
2022/06/16 08:45:21;;;;;;;14.68;4.85;;;24.10;92.90;;;;;;5089075;28;20119;-69
2022/06/16 08:47:53;;;;;;;10.07;3.67;;;23.90;92.40;;;;;;5087209;28;20101;-68
2022/06/16 08:50:47;;;;;;;10.88;3.65;;;23.80;92.90;;;;;;5094468;28;20085;-68
2022/06/16 08:53:22;;;;;;;11.38;3.47;;;24.00;92.30;;;;;;5087623;28;20473;-70
2022/06/16 08:56:21;;;;;;;12.15;3.42;;;23.90;90.70;;;;;;5094396;28;20119;-69
2022/06/16 08:59:12;;;;;;;11.23;3.50;;;24.10;90.90;;;;;;5094111;28;20129;-68
2022/06/16 09:01:54;;;;;;;8.00;2.67;;;24.10;91.50;;;;;;5094630;28;20472;-68
2022/06/16 09:04:37;;;;;;;10.68;3.20;;;24.10;90.20;;;;;;5087523;28;20131;-69
2022/06/16 09:07:05;;;;;;;6.97;3.30;;;24.00;90.80;;;;;;5094242;28;20032;-70
2022/06/16 09:10:14;;;;;;;7.97;2.78;;;24.50;89.30;;;;;;5094043;28;20020;-68
2022/06/16 09:12:58;;;;;;;7.13;3.08;;;24.70;89.90;;;;;;5093655;28;20040;-70
2022/06/16 09:15:26;;;;;;;5.47;2.70;;;24.40;86.90;;;;;;5094376;28;20028;-70
2022/06/16 09:17:52;;;;;;;9.82;2.70;;;24.40;87.80;;;;;;5092939;28;20423;-69
2022/06/16 09:21:04;;;;;;;5.78;2.65;;;24.60;88.50;;;;;;5093985;28;20031;-70
2022/06/16 09:24:07;;;;;;;6.70;3.17;;;24.90;89.80;;;;;;5051758;28;20118;-68
2022/06/16 09:26:44;;;;;;;5.47;2.25;;;25.20;88.20;;;;;;5093790;28;20020;-70
2022/06/16 09:29:19;;;;;;;9.15;2.38;;;25.40;86.10;;;;;;5084064;28;20047;-70
2022/06/16 09:31:55;;;;;;;7.38;2.78;;;25.50;86.40;;;;;;5089843;28;20120;-69
2022/06/16 09:34:33;;;;;;;3.05;2.10;;;25.40;85.80;;;;;;5093788;28;20114;-70
2022/06/16 09:37:05;;;;;;;8.18;2.22;;;25.40;84.80;;;;;;5092598;28;20426;-70
2022/06/16 09:39:37;;;;;;;6.55;2.55;;;25.90;86.00;;;;;;5093743;28;20498;-68
2022/06/16 09:45:04;;;;;;;7.47;2.50;;;26.00;81.30;;;;;;5093075;28;20020;-69
2022/06/16 09:47:36;;;;;;;8.70;3.00;;;25.90;84.30;;;;;;5072455;28;20412;-70
2022/06/16 09:50:14;;;;;;;9.32;3.22;;;26.00;82.00;;;;;;5093604;28;20119;-69
2022/06/16 09:52:54;;;;;;;5.47;3.10;;;26.30;83.60;;;;;;5066371;28;20479;-69
2022/06/16 09:55:40;;;;;;;14.77;2.88;;;25.90;80.60;;;;;;5091497;28;20446;-69
2022/06/16 09:58:30;;;;;;;16.75;2.88;;;25.70;84.60;;;;;;5093118;28;20172;-70
2022/06/16 10:01:02;;;;;;;8.95;2.58;;;26.10;83.10;;;;;;5092914;28;20028;-68
2022/06/16 10:03:37;;;;;;;;;;;25.90;83.70;;;;;;5089548;28;20028;-69
2022/06/16 10:06:32;;;;;;;7.55;3.03;;;25.60;82.60;;;;;;5091638;28;20404;-68
2022/06/16 10:09:33;;;;;;;8.65;3.05;;;25.80;84.40;;;;;;5088556;28;20043;-69
2022/06/16 10:12:17;;;;;;;16.17;3.17;;;26.10;82.70;;;;;;5050308;28;20033;-69
2022/06/16 10:15:13;;;;;;;8.88;2.70;;;26.60;82.10;;;;;;5089475;28;20073;-68
2022/06/16 10:17:42;;;;;;;8.73;2.58;;;26.30;81.60;;;;;;5087192;28;20064;-68
2022/06/16 10:20:09;;;;;;;9.50;2.92;;;26.40;83.10;;;;;;5093101;28;20070;-70
2022/06/16 10:22:39;;;;;;;14.70;3.75;;;26.40;79.30;;;;;;5092986;28;20036;-69
2022/06/16 10:25:25;;;;;;;6.78;2.58;;;26.60;82.00;;;;;;5091456;28;20107;-69
2022/06/16 10:27:57;;;;;;;10.27;2.70;;;26.90;81.80;;;;;;5092365;28;20032;-68
2022/06/16 10:30:36;;;;;;;10.63;2.70;;;26.50;79.40;;;;;;5078604;28;20494;-69
2022/06/16 10:33:18;;;;;;;9.45;3.15;;;26.50;80.70;;;;;;5092865;28;20024;-69
2022/06/16 10:36:16;;;;;;;9.35;2.53;;;26.20;80.50;;;;;;5066816;28;20051;-69
2022/06/16 10:39:01;;;;;;;11.23;2.60;;;26.30;81.50;;;;;;5092411;28;20019;-68
2022/06/16 10:41:35;;;;;;;13.88;2.50;;;26.80;79.20;;;;;;5092405;28;20074;-69
2022/06/16 10:44:06;;;;;;;11.27;2.85;;;27.00;78.60;;;;;;5093078;28;20384;-70
2022/06/16 10:46:35;;;;;;;5.03;2.13;;;27.10;79.60;;;;;;5087612;28;20024;-69
2022/06/16 10:49:12;;;;;;;10.00;2.42;;;27.50;80.30;;;;;;5093148;28;20031;-68
2022/06/16 10:51:49;;;;;;;5.25;2.53;;;27.80;79.00;;;;;;5093481;28;20032;-69
2022/06/16 10:54:21;;;;;;;9.35;2.55;;;26.90;77.10;;;;;;5096145;28;20035;-69
2022/06/16 10:56:47;;;;;;;10.07;2.80;;;27.00;79.10;;;;;;5096456;28;20030;-69
2022/06/16 10:59:25;;;;;;;7.63;3.30;;;27.30;78.90;;;;;;5096396;28;20027;-70
2022/06/16 11:02:13;;;;;;;13.32;2.53;;;27.00;78.30;;;;;;5096322;28;20039;-70
2022/06/16 11:04:43;;;;;;;21.55;2.95;;;27.60;78.70;;;;;;5089576;28;20043;-67
2022/06/16 11:07:12;;;;;;;4.95;2.22;;;27.30;77.50;;;;;;5081239;28;20020;-69
2022/06/16 11:09:38;;;;;;;4.03;2.53;;;27.10;78.30;;;;;;5071169;28;20020;-69
2022/06/16 11:12:23;;;;;;;11.40;2.88;;;27.50;77.50;;;;;;5074645;28;20044;-71
2022/06/16 11:15:14;;;;;;;8.55;2.50;;;26.40;77.20;;;;;;5073510;28;20029;-70
2022/06/16 11:17:46;;;;;;;7.07;2.45;;;26.20;77.70;;;;;;5075150;28;20577;-71
2022/06/16 11:20:15;;;;;;;8.50;2.45;;;26.70;78.50;;;;;;5064341;28;20481;-71
2022/06/16 11:22:44;;;;;;;6.72;2.05;;;27.40;78.30;;;;;;5074988;28;20043;-69
2022/06/16 11:25:24;;;;;;;4.50;2.25;;;28.00;80.10;;;;;;5074745;28;20032;-70
2022/06/16 11:27:56;;;;;;;7.13;3.20;;;28.60;78.10;;;;;;5074826;28;20029;-70
2022/06/16 11:30:35;;;;;;;8.32;2.90;;;28.70;76.30;;;;;;5079462;28;20058;-68
2022/06/16 11:33:01;;;;;;;9.05;2.90;;;28.60;76.40;;;;;;5084408;28;20024;-69
2022/06/16 11:35:48;;;;;;;9.63;3.90;;;28.70;76.40;;;;;;5084299;28;20034;-69
2022/06/16 11:38:17;;;;;;;10.32;2.67;;;28.50;76.20;;;;;;5080351;28;20060;-67
2022/06/16 11:40:59;;;;;;;9.98;2.33;;;28.50;78.10;;;;;;5068395;28;20498;-68
2022/06/16 11:43:34;;;;;;;9.05;2.55;;;29.00;75.70;;;;;;5080806;28;20056;-69
2022/06/16 11:46:23;;;;;;;6.20;2.55;;;28.30;76.50;;;;;;5080449;28;20050;-68
2022/06/16 11:48:54;;;;;;;8.90;3.25;;;28.20;77.30;;;;;;5082140;28;20488;-67
2022/06/16 11:51:51;;;;;;;15.07;2.90;;;28.00;75.20;;;;;;5091341;28;20024;-68
2022/06/16 11:54:36;;;;;;;4.75;2.83;;;28.10;77.60;;;;;;5089636;28;20055;-68
2022/06/16 11:57:07;;;;;;;7.35;2.65;;;27.90;77.60;;;;;;5078652;28;20492;-68
2022/06/16 12:00:22;;;;;;;12.02;2.97;;;28.00;75.50;;;;;;5085199;28;20667;-69
2022/06/16 12:03:02;;;;;;;9.45;2.88;;;27.90;74.80;;;;;;5063512;28;20079;-69
2022/06/16 12:05:28;;;;;;;7.47;2.47;;;27.40;75.10;;;;;;5088297;28;20081;-68
2022/06/16 12:08:29;;;;;;;6.22;2.45;;;27.90;77.50;;;;;;5094936;28;20016;-68
2022/06/16 12:11:22;;;;;;;17.70;2.75;;;27.80;73.70;;;;;;5093741;28;20034;-67
2022/06/16 12:14:13;;;;;;;10.45;2.67;;;28.30;77.20;;;;;;5094929;28;20047;-68
2022/06/16 12:17:18;;;;;;;10.88;2.40;;;28.90;74.50;;;;;;5071078;28;20496;-67
2022/06/16 12:20:04;;;;;;;10.32;2.55;;;29.50;74.80;;;;;;5093936;28;20028;-70
2022/06/16 12:22:55;;;;;;;8.90;2.55;;;29.70;74.40;;;;;;5094855;28;20032;-69
2022/06/16 12:25:26;;;;;;;11.38;2.47;;;29.80;73.80;;;;;;5094931;28;20081;-67
2022/06/16 12:28:16;;;;;;;9.63;2.60;;;29.70;73.60;;;;;;5094880;28;20020;-67
2022/06/16 12:30:54;;;;;;;8.90;2.50;;;28.80;74.40;;;;;;5069994;28;20123;-69
2022/06/16 12:33:37;;;;;;;4.78;2.35;;;29.20;75.30;;;;;;5094583;28;20024;-68
2022/06/16 12:36:11;;;;;;;6.93;2.40;;;29.80;76.50;;;;;;5094883;28;20023;-69
2022/06/16 12:38:51;;;;;;;7.95;2.60;;;30.30;72.70;;;;;;5094513;28;20514;-67
2022/06/16 12:41:23;;;;;;;13.77;2.88;;;30.40;73.00;;;;;;5094759;28;20426;-68
2022/06/16 12:43:57;;;;;;;15.82;2.53;;;30.80;72.90;;;;;;5094800;28;20046;-68
2022/06/16 12:46:30;;;;;;;12.05;2.92;;;31.00;74.30;;;;;;5091856;28;20058;-68
2022/06/16 12:49:16;;;;;;;6.55;2.22;;;31.00;71.60;;;;;;5092323;28;20024;-69
2022/06/16 12:51:49;;;;;;;4.03;2.38;;;30.50;72.70;;;;;;5094624;28;20103;-68
2022/06/16 12:54:24;;;;;;;8.68;2.60;;;31.00;72.50;;;;;;5093747;28;20035;-68
2022/06/16 12:56:57;;;;;;;8.30;2.78;;;30.80;71.30;;;;;;5095001;28;20075;-67
2022/06/16 12:59:51;;;;;;;7.90;2.58;;;31.30;71.30;;;;;;5094355;28;20373;-68
2022/06/16 13:02:22;;;;;;;10.65;2.72;;;30.70;70.30;;;;;;5094255;28;20089;-68
2022/06/16 13:04:50;;;;;;;6.85;2.80;;;30.60;72.00;;;;;;5087004;28;20435;-68
2022/06/16 13:07:20;;;;;;;10.77;2.65;;;30.70;70.10;;;;;;5093611;28;20023;-68
2022/06/16 13:09:46;;;;;;;7.90;2.85;;;30.40;70.10;;;;;;5081855;28;20035;-69
2022/06/16 13:12:29;;;;;;;9.38;2.47;;;30.30;71.30;;;;;;5087368;28;20035;-69
2022/06/16 13:15:04;;;;;;;6.63;2.40;;;30.80;71.30;;;;;;5056768;28;20454;-69
2022/06/16 13:17:35;;;;;;;13.45;3.17;;;30.60;70.50;;;;;;5059901;28;20016;-67
2022/06/16 13:20:12;;;;;;;11.03;3.00;;;30.90;71.60;;;;;;5072801;28;20107;-67
2022/06/16 13:22:54;;;;;;;5.30;2.50;;;30.80;69.00;;;;;;5067770;28;20482;-68
2022/06/16 13:25:52;;;;;;;9.32;2.40;;;30.60;72.00;;;;;;5072774;28;20025;-69
2022/06/16 13:28:35;;;;;;;9.55;2.40;;;31.60;69.80;;;;;;5063895;28;20504;-67
2022/06/16 13:31:22;;;;;;;8.48;2.60;;;31.30;69.20;;;;;;5073397;28;20066;-68
2022/06/16 13:33:54;;;;;;;8.82;2.30;;;30.90;68.70;;;;;;5082279;28;20039;-68
2022/06/16 13:36:23;;;;;;;16.45;2.92;;;30.80;69.50;;;;;;5081598;28;20036;-67
2022/06/16 13:38:51;;;;;;;6.45;1.95;;;31.20;70.80;;;;;;5088562;28;20012;-66
2022/06/16 13:41:37;;;;;;;8.75;2.58;;;32.50;69.70;;;;;;5092529;28;20113;-68